sensor_id;sensor_type;location;lat;lon;timestamp;P1;durP1;ratioP1;P2;durP2;ratioP2
45728;SDS011;31439;53.512;10.206;2022-10-17T00:00:41;6.53;;;2.55;;
45728;SDS011;31439;53.512;10.206;2022-10-17T00:03:06;5.20;;;2.28;;
45728;SDS011;31439;53.512;10.206;2022-10-17T00:05:32;8.43;;;2.28;;
45728;SDS011;31439;53.512;10.206;2022-10-17T00:07:58;5.65;;;2.40;;
45728;SDS011;31439;53.512;10.206;2022-10-17T00:10:24;10.32;;;2.30;;
45728;SDS011;31439;53.512;10.206;2022-10-17T00:12:49;8.38;;;2.47;;
45728;SDS011;31439;53.512;10.206;2022-10-17T00:15:17;9.70;;;2.50;;
45728;SDS011;31439;53.512;10.206;2022-10-17T00:17:44;7.90;;;2.20;;
45728;SDS011;31439;53.512;10.206;2022-10-17T00:20:10;7.70;;;2.25;;
45728;SDS011;31439;53.512;10.206;2022-10-17T00:22:36;8.18;;;2.17;;
45728;SDS011;31439;53.512;10.206;2022-10-17T00:25:02;9.75;;;2.67;;
45728;SDS011;31439;53.512;10.206;2022-10-17T00:27:28;6.13;;;1.83;;
45728;SDS011;31439;53.512;10.206;2022-10-17T00:29:53;6.43;;;2.20;;
45728;SDS011;31439;53.512;10.206;2022-10-17T00:32:19;6.72;;;2.42;;
45728;SDS011;31439;53.512;10.206;2022-10-17T00:34:45;7.35;;;2.20;;
45728;SDS011;31439;53.512;10.206;2022-10-17T00:37:10;7.72;;;2.40;;
45728;SDS011;31439;53.512;10.206;2022-10-17T00:39:36;6.25;;;1.90;;
45728;SDS011;31439;53.512;10.206;2022-10-17T00:42:02;13.25;;;2.58;;
45728;SDS011;31439;53.512;10.206;2022-10-17T00:46:54;5.45;;;2.20;;
45728;SDS011;31439;53.512;10.206;2022-10-17T00:49:25;4.55;;;2.13;;
45728;SDS011;31439;53.512;10.206;2022-10-17T00:51:55;7.13;;;2.15;;
45728;SDS011;31439;53.512;10.206;2022-10-17T00:54:24;7.15;;;2.47;;
45728;SDS011;31439;53.512;10.206;2022-10-17T00:56:55;7.20;;;2.10;;
45728;SDS011;31439;53.512;10.206;2022-10-17T00:59:21;10.20;;;2.40;;
45728;SDS011;31439;53.512;10.206;2022-10-17T01:02:03;7.97;;;1.90;;
45728;SDS011;31439;53.512;10.206;2022-10-17T01:04:30;8.82;;;2.40;;
45728;SDS011;31439;53.512;10.206;2022-10-17T01:06:56;7.60;;;1.92;;
45728;SDS011;31439;53.512;10.206;2022-10-17T01:09:22;8.30;;;2.10;;
45728;SDS011;31439;53.512;10.206;2022-10-17T01:11:49;7.60;;;2.35;;
45728;SDS011;31439;53.512;10.206;2022-10-17T01:14:25;4.60;;;2.10;;
45728;SDS011;31439;53.512;10.206;2022-10-17T01:17:02;7.90;;;2.22;;
45728;SDS011;31439;53.512;10.206;2022-10-17T01:20:11;6.60;;;2.03;;
45728;SDS011;31439;53.512;10.206;2022-10-17T01:30:53;6.65;;;1.98;;
45728;SDS011;31439;53.512;10.206;2022-10-17T01:33:39;7.53;;;2.03;;
45728;SDS011;31439;53.512;10.206;2022-10-17T01:36:11;8.18;;;2.33;;
45728;SDS011;31439;53.512;10.206;2022-10-17T01:38:48;7.32;;;2.20;;
45728;SDS011;31439;53.512;10.206;2022-10-17T01:41:25;9.05;;;2.75;;
45728;SDS011;31439;53.512;10.206;2022-10-17T01:44:03;7.97;;;2.45;;
45728;SDS011;31439;53.512;10.206;2022-10-17T01:46:36;6.60;;;2.00;;
45728;SDS011;31439;53.512;10.206;2022-10-17T01:49:04;4.72;;;2.13;;
45728;SDS011;31439;53.512;10.206;2022-10-17T01:51:37;5.85;;;2.40;;
45728;SDS011;31439;53.512;10.206;2022-10-17T01:54:22;10.88;;;2.60;;
45728;SDS011;31439;53.512;10.206;2022-10-17T01:56:54;8.40;;;2.33;;
45728;SDS011;31439;53.512;10.206;2022-10-17T01:59:24;7.50;;;2.20;;
45728;SDS011;31439;53.512;10.206;2022-10-17T02:01:54;4.28;;;2.17;;
45728;SDS011;31439;53.512;10.206;2022-10-17T02:04:21;8.15;;;2.30;;
45728;SDS011;31439;53.512;10.206;2022-10-17T02:06:47;7.07;;;2.30;;
45728;SDS011;31439;53.512;10.206;2022-10-17T02:09:16;7.50;;;2.70;;
45728;SDS011;31439;53.512;10.206;2022-10-17T02:11:49;7.43;;;2.35;;
45728;SDS011;31439;53.512;10.206;2022-10-17T02:22:48;5.80;;;2.40;;
45728;SDS011;31439;53.512;10.206;2022-10-17T02:25:21;5.38;;;1.90;;
45728;SDS011;31439;53.512;10.206;2022-10-17T02:31:05;6.95;;;2.22;;
45728;SDS011;31439;53.512;10.206;2022-10-17T02:36:38;3.88;;;2.03;;
45728;SDS011;31439;53.512;10.206;2022-10-17T02:39:07;4.97;;;2.20;;
45728;SDS011;31439;53.512;10.206;2022-10-17T02:41:34;6.28;;;2.15;;
45728;SDS011;31439;53.512;10.206;2022-10-17T02:44:01;3.28;;;1.88;;
45728;SDS011;31439;53.512;10.206;2022-10-17T02:46:29;3.65;;;2.03;;
45728;SDS011;31439;53.512;10.206;2022-10-17T02:49:00;4.97;;;1.83;;
45728;SDS011;31439;53.512;10.206;2022-10-17T02:54:15;5.75;;;1.90;;
45728;SDS011;31439;53.512;10.206;2022-10-17T02:56:53;3.22;;;1.77;;
45728;SDS011;31439;53.512;10.206;2022-10-17T02:59:23;4.82;;;2.15;;
45728;SDS011;31439;53.512;10.206;2022-10-17T03:01:50;2.42;;;1.60;;
45728;SDS011;31439;53.512;10.206;2022-10-17T03:04:16;7.03;;;2.00;;
45728;SDS011;31439;53.512;10.206;2022-10-17T03:06:43;4.75;;;1.83;;
45728;SDS011;31439;53.512;10.206;2022-10-17T03:09:10;3.65;;;1.58;;
45728;SDS011;31439;53.512;10.206;2022-10-17T03:11:36;5.50;;;1.80;;
45728;SDS011;31439;53.512;10.206;2022-10-17T03:14:01;3.50;;;1.80;;
45728;SDS011;31439;53.512;10.206;2022-10-17T03:16:27;4.72;;;2.00;;
45728;SDS011;31439;53.512;10.206;2022-10-17T03:18:52;6.90;;;1.90;;
45728;SDS011;31439;53.512;10.206;2022-10-17T03:21:18;5.63;;;1.67;;
45728;SDS011;31439;53.512;10.206;2022-10-17T03:23:44;3.25;;;2.00;;
45728;SDS011;31439;53.512;10.206;2022-10-17T03:26:09;6.90;;;1.80;;
45728;SDS011;31439;53.512;10.206;2022-10-17T03:28:35;3.78;;;1.77;;
45728;SDS011;31439;53.512;10.206;2022-10-17T03:31:07;5.45;;;1.92;;
45728;SDS011;31439;53.512;10.206;2022-10-17T03:33:34;6.90;;;2.20;;
45728;SDS011;31439;53.512;10.206;2022-10-17T03:36:05;4.55;;;1.83;;
45728;SDS011;31439;53.512;10.206;2022-10-17T03:38:34;3.75;;;1.65;;
45728;SDS011;31439;53.512;10.206;2022-10-17T03:41:00;4.53;;;1.67;;
45728;SDS011;31439;53.512;10.206;2022-10-17T03:43:26;5.63;;;1.88;;
45728;SDS011;31439;53.512;10.206;2022-10-17T03:45:52;3.30;;;1.60;;
45728;SDS011;31439;53.512;10.206;2022-10-17T03:48:17;4.82;;;1.85;;
45728;SDS011;31439;53.512;10.206;2022-10-17T03:50:43;6.93;;;2.00;;
45728;SDS011;31439;53.512;10.206;2022-10-17T03:53:08;4.22;;;1.83;;
45728;SDS011;31439;53.512;10.206;2022-10-17T03:55:34;2.65;;;1.70;;
45728;SDS011;31439;53.512;10.206;2022-10-17T03:57:59;4.13;;;1.80;;
45728;SDS011;31439;53.512;10.206;2022-10-17T04:00:25;5.05;;;2.08;;
45728;SDS011;31439;53.512;10.206;2022-10-17T04:02:50;5.60;;;1.90;;
45728;SDS011;31439;53.512;10.206;2022-10-17T04:05:16;2.60;;;1.70;;
45728;SDS011;31439;53.512;10.206;2022-10-17T04:07:41;4.60;;;1.73;;
45728;SDS011;31439;53.512;10.206;2022-10-17T04:10:07;5.85;;;2.22;;
45728;SDS011;31439;53.512;10.206;2022-10-17T04:12:33;4.60;;;1.80;;
45728;SDS011;31439;53.512;10.206;2022-10-17T04:14:58;4.40;;;1.95;;
45728;SDS011;31439;53.512;10.206;2022-10-17T04:17:24;5.78;;;1.83;;
45728;SDS011;31439;53.512;10.206;2022-10-17T04:19:49;6.60;;;1.95;;
45728;SDS011;31439;53.512;10.206;2022-10-17T04:22:15;5.93;;;1.88;;
45728;SDS011;31439;53.512;10.206;2022-10-17T04:24:40;6.47;;;1.90;;
45728;SDS011;31439;53.512;10.206;2022-10-17T04:27:06;2.50;;;1.83;;
45728;SDS011;31439;53.512;10.206;2022-10-17T04:29:32;6.55;;;1.85;;
45728;SDS011;31439;53.512;10.206;2022-10-17T04:31:58;3.83;;;1.73;;
45728;SDS011;31439;53.512;10.206;2022-10-17T04:34:23;4.30;;;1.90;;
45728;SDS011;31439;53.512;10.206;2022-10-17T04:36:49;6.13;;;2.28;;
45728;SDS011;31439;53.512;10.206;2022-10-17T04:39:15;9.32;;;1.95;;
45728;SDS011;31439;53.512;10.206;2022-10-17T04:41:41;4.55;;;2.20;;
45728;SDS011;31439;53.512;10.206;2022-10-17T04:44:07;5.47;;;2.10;;
45728;SDS011;31439;53.512;10.206;2022-10-17T04:46:33;2.78;;;1.88;;
45728;SDS011;31439;53.512;10.206;2022-10-17T04:48:59;3.88;;;2.10;;
45728;SDS011;31439;53.512;10.206;2022-10-17T04:51:24;3.35;;;1.85;;
45728;SDS011;31439;53.512;10.206;2022-10-17T04:53:50;5.53;;;1.92;;
45728;SDS011;31439;53.512;10.206;2022-10-17T04:56:16;4.13;;;1.80;;
45728;SDS011;31439;53.512;10.206;2022-10-17T04:58:44;3.28;;;1.83;;
45728;SDS011;31439;53.512;10.206;2022-10-17T05:01:12;4.35;;;2.05;;
45728;SDS011;31439;53.512;10.206;2022-10-17T05:03:39;5.50;;;2.03;;
45728;SDS011;31439;53.512;10.206;2022-10-17T05:06:15;4.07;;;2.10;;
45728;SDS011;31439;53.512;10.206;2022-10-17T05:08:46;5.93;;;2.17;;
45728;SDS011;31439;53.512;10.206;2022-10-17T05:11:14;3.90;;;2.10;;
45728;SDS011;31439;53.512;10.206;2022-10-17T05:13:48;4.40;;;2.10;;
45728;SDS011;31439;53.512;10.206;2022-10-17T05:16:18;2.80;;;2.10;;
45728;SDS011;31439;53.512;10.206;2022-10-17T05:18:46;4.93;;;2.10;;
45728;SDS011;31439;53.512;10.206;2022-10-17T05:21:16;4.45;;;2.10;;
45728;SDS011;31439;53.512;10.206;2022-10-17T05:23:42;3.35;;;1.98;;
45728;SDS011;31439;53.512;10.206;2022-10-17T05:26:08;3.03;;;2.17;;
45728;SDS011;31439;53.512;10.206;2022-10-17T05:28:33;6.25;;;2.00;;
45728;SDS011;31439;53.512;10.206;2022-10-17T05:31:05;3.60;;;2.05;;
45728;SDS011;31439;53.512;10.206;2022-10-17T05:33:32;4.07;;;2.25;;
45728;SDS011;31439;53.512;10.206;2022-10-17T05:35:58;4.22;;;2.55;;
45728;SDS011;31439;53.512;10.206;2022-10-17T05:38:25;4.82;;;2.35;;
45728;SDS011;31439;53.512;10.206;2022-10-17T05:40:50;6.32;;;2.25;;
45728;SDS011;31439;53.512;10.206;2022-10-17T05:43:16;3.92;;;2.10;;
45728;SDS011;31439;53.512;10.206;2022-10-17T05:45:42;5.88;;;2.20;;
45728;SDS011;31439;53.512;10.206;2022-10-17T05:48:07;4.22;;;2.10;;
45728;SDS011;31439;53.512;10.206;2022-10-17T05:50:33;3.47;;;1.98;;
45728;SDS011;31439;53.512;10.206;2022-10-17T05:52:59;3.97;;;2.10;;
45728;SDS011;31439;53.512;10.206;2022-10-17T05:55:25;6.25;;;2.45;;
45728;SDS011;31439;53.512;10.206;2022-10-17T05:57:50;6.03;;;2.55;;
45728;SDS011;31439;53.512;10.206;2022-10-17T06:00:17;3.08;;;2.03;;
45728;SDS011;31439;53.512;10.206;2022-10-17T06:02:44;3.67;;;2.20;;
45728;SDS011;31439;53.512;10.206;2022-10-17T06:05:12;6.95;;;2.50;;
45728;SDS011;31439;53.512;10.206;2022-10-17T06:07:38;4.47;;;2.20;;
45728;SDS011;31439;53.512;10.206;2022-10-17T06:10:05;3.53;;;2.17;;
45728;SDS011;31439;53.512;10.206;2022-10-17T06:12:31;5.28;;;2.20;;
45728;SDS011;31439;53.512;10.206;2022-10-17T06:14:56;2.80;;;2.03;;
45728;SDS011;31439;53.512;10.206;2022-10-17T06:17:22;3.00;;;2.10;;
45728;SDS011;31439;53.512;10.206;2022-10-17T06:19:48;4.05;;;2.20;;
45728;SDS011;31439;53.512;10.206;2022-10-17T06:22:14;3.70;;;1.80;;
45728;SDS011;31439;53.512;10.206;2022-10-17T06:24:40;5.35;;;2.10;;
45728;SDS011;31439;53.512;10.206;2022-10-17T06:27:06;4.20;;;2.00;;
45728;SDS011;31439;53.512;10.206;2022-10-17T06:29:32;6.80;;;2.25;;
45728;SDS011;31439;53.512;10.206;2022-10-17T06:31:57;3.67;;;2.20;;
45728;SDS011;31439;53.512;10.206;2022-10-17T06:34:23;7.80;;;2.47;;
45728;SDS011;31439;53.512;10.206;2022-10-17T06:36:48;3.10;;;2.03;;
45728;SDS011;31439;53.512;10.206;2022-10-17T06:39:14;5.40;;;2.58;;
45728;SDS011;31439;53.512;10.206;2022-10-17T06:41:39;7.60;;;2.40;;
45728;SDS011;31439;53.512;10.206;2022-10-17T06:44:07;4.00;;;2.10;;
45728;SDS011;31439;53.512;10.206;2022-10-17T06:46:35;4.60;;;2.30;;
45728;SDS011;31439;53.512;10.206;2022-10-17T06:49:05;5.10;;;2.35;;
45728;SDS011;31439;53.512;10.206;2022-10-17T06:51:31;4.60;;;2.20;;
45728;SDS011;31439;53.512;10.206;2022-10-17T06:53:59;3.95;;;2.38;;
45728;SDS011;31439;53.512;10.206;2022-10-17T06:56:25;3.75;;;2.40;;
45728;SDS011;31439;53.512;10.206;2022-10-17T06:58:50;5.15;;;2.20;;
45728;SDS011;31439;53.512;10.206;2022-10-17T07:01:17;4.32;;;2.47;;
45728;SDS011;31439;53.512;10.206;2022-10-17T07:03:42;3.92;;;2.55;;
45728;SDS011;31439;53.512;10.206;2022-10-17T07:06:11;3.40;;;2.33;;
45728;SDS011;31439;53.512;10.206;2022-10-17T07:08:36;3.85;;;2.65;;
45728;SDS011;31439;53.512;10.206;2022-10-17T07:11:09;5.65;;;2.70;;
45728;SDS011;31439;53.512;10.206;2022-10-17T07:13:36;4.15;;;2.42;;
45728;SDS011;31439;53.512;10.206;2022-10-17T07:16:01;4.15;;;2.60;;
45728;SDS011;31439;53.512;10.206;2022-10-17T07:18:27;4.78;;;2.83;;
45728;SDS011;31439;53.512;10.206;2022-10-17T07:20:53;4.97;;;2.40;;
45728;SDS011;31439;53.512;10.206;2022-10-17T07:23:19;4.63;;;2.60;;
45728;SDS011;31439;53.512;10.206;2022-10-17T07:25:45;4.57;;;2.65;;
45728;SDS011;31439;53.512;10.206;2022-10-17T07:28:11;5.90;;;3.00;;
45728;SDS011;31439;53.512;10.206;2022-10-17T07:30:38;3.22;;;2.38;;
45728;SDS011;31439;53.512;10.206;2022-10-17T07:33:04;3.72;;;2.58;;
45728;SDS011;31439;53.512;10.206;2022-10-17T07:35:29;4.53;;;2.70;;
45728;SDS011;31439;53.512;10.206;2022-10-17T07:37:55;3.30;;;2.60;;
45728;SDS011;31439;53.512;10.206;2022-10-17T07:40:20;5.97;;;2.60;;
45728;SDS011;31439;53.512;10.206;2022-10-17T07:42:46;6.95;;;2.50;;
45728;SDS011;31439;53.512;10.206;2022-10-17T07:45:15;4.90;;;2.50;;
45728;SDS011;31439;53.512;10.206;2022-10-17T07:47:41;4.43;;;2.80;;
45728;SDS011;31439;53.512;10.206;2022-10-17T07:50:06;3.85;;;2.55;;
45728;SDS011;31439;53.512;10.206;2022-10-17T07:52:32;4.57;;;2.60;;
45728;SDS011;31439;53.512;10.206;2022-10-17T07:55:01;7.25;;;2.88;;
45728;SDS011;31439;53.512;10.206;2022-10-17T07:57:26;4.18;;;2.72;;
45728;SDS011;31439;53.512;10.206;2022-10-17T07:59:52;6.53;;;3.03;;
45728;SDS011;31439;53.512;10.206;2022-10-17T08:02:24;4.78;;;2.70;;
45728;SDS011;31439;53.512;10.206;2022-10-17T08:04:53;3.42;;;2.80;;
45728;SDS011;31439;53.512;10.206;2022-10-17T08:07:21;4.88;;;3.08;;
45728;SDS011;31439;53.512;10.206;2022-10-17T08:09:47;5.43;;;3.10;;
45728;SDS011;31439;53.512;10.206;2022-10-17T08:12:13;5.07;;;2.67;;
45728;SDS011;31439;53.512;10.206;2022-10-17T08:14:39;5.57;;;3.30;;
45728;SDS011;31439;53.512;10.206;2022-10-17T08:17:05;4.38;;;2.80;;
45728;SDS011;31439;53.512;10.206;2022-10-17T08:19:31;6.55;;;2.53;;
45728;SDS011;31439;53.512;10.206;2022-10-17T08:21:56;8.50;;;2.58;;
45728;SDS011;31439;53.512;10.206;2022-10-17T08:24:25;5.95;;;2.78;;
45728;SDS011;31439;53.512;10.206;2022-10-17T08:26:51;5.28;;;2.75;;
45728;SDS011;31439;53.512;10.206;2022-10-17T08:29:17;3.70;;;2.90;;
45728;SDS011;31439;53.512;10.206;2022-10-17T08:31:43;6.75;;;2.83;;
45728;SDS011;31439;53.512;10.206;2022-10-17T08:34:09;5.82;;;3.15;;
45728;SDS011;31439;53.512;10.206;2022-10-17T08:36:34;3.85;;;2.63;;
45728;SDS011;31439;53.512;10.206;2022-10-17T08:39:00;6.63;;;3.17;;
45728;SDS011;31439;53.512;10.206;2022-10-17T08:46:44;6.07;;;3.10;;
45728;SDS011;31439;53.512;10.206;2022-10-17T08:49:22;6.53;;;3.50;;
45728;SDS011;31439;53.512;10.206;2022-10-17T08:51:58;5.28;;;3.08;;
45728;SDS011;31439;53.512;10.206;2022-10-17T08:54:39;7.40;;;2.95;;
45728;SDS011;31439;53.512;10.206;2022-10-17T08:57:12;4.97;;;2.50;;
45728;SDS011;31439;53.512;10.206;2022-10-17T08:59:39;6.80;;;2.80;;
45728;SDS011;31439;53.512;10.206;2022-10-17T09:10:51;4.22;;;3.03;;
45728;SDS011;31439;53.512;10.206;2022-10-17T09:19:17;4.85;;;2.90;;
45728;SDS011;31439;53.512;10.206;2022-10-17T09:21:53;4.72;;;3.40;;
45728;SDS011;31439;53.512;10.206;2022-10-17T09:24:45;7.35;;;2.83;;
45728;SDS011;31439;53.512;10.206;2022-10-17T09:27:22;6.25;;;2.95;;
45728;SDS011;31439;53.512;10.206;2022-10-17T09:29:53;4.65;;;2.50;;
45728;SDS011;31439;53.512;10.206;2022-10-17T09:32:39;4.95;;;2.50;;
45728;SDS011;31439;53.512;10.206;2022-10-17T09:35:10;5.40;;;2.50;;
45728;SDS011;31439;53.512;10.206;2022-10-17T09:37:37;5.30;;;2.80;;
45728;SDS011;31439;53.512;10.206;2022-10-17T09:40:04;7.68;;;3.03;;
45728;SDS011;31439;53.512;10.206;2022-10-17T09:42:31;4.80;;;3.10;;
45728;SDS011;31439;53.512;10.206;2022-10-17T09:47:28;4.10;;;2.90;;
45728;SDS011;31439;53.512;10.206;2022-10-17T09:50:02;8.80;;;3.20;;
45728;SDS011;31439;53.512;10.206;2022-10-17T09:52:29;6.13;;;3.08;;
45728;SDS011;31439;53.512;10.206;2022-10-17T09:55:00;4.13;;;2.67;;
45728;SDS011;31439;53.512;10.206;2022-10-17T09:57:29;4.57;;;3.00;;
45728;SDS011;31439;53.512;10.206;2022-10-17T10:00:24;4.10;;;2.80;;
45728;SDS011;31439;53.512;10.206;2022-10-17T10:06:05;4.90;;;2.83;;
45728;SDS011;31439;53.512;10.206;2022-10-17T10:08:52;5.00;;;3.15;;
45728;SDS011;31439;53.512;10.206;2022-10-17T10:11:22;9.20;;;2.78;;
45728;SDS011;31439;53.512;10.206;2022-10-17T10:13:50;6.70;;;2.72;;
45728;SDS011;31439;53.512;10.206;2022-10-17T10:16:18;5.10;;;2.78;;
45728;SDS011;31439;53.512;10.206;2022-10-17T10:19:18;6.47;;;3.00;;
45728;SDS011;31439;53.512;10.206;2022-10-17T10:21:54;6.90;;;2.53;;
45728;SDS011;31439;53.512;10.206;2022-10-17T10:24:21;7.53;;;2.90;;
45728;SDS011;31439;53.512;10.206;2022-10-17T10:26:47;7.93;;;3.00;;
45728;SDS011;31439;53.512;10.206;2022-10-17T10:31:54;6.70;;;3.05;;
45728;SDS011;31439;53.512;10.206;2022-10-17T10:34:28;3.92;;;3.15;;
45728;SDS011;31439;53.512;10.206;2022-10-17T10:36:59;7.10;;;3.13;;
45728;SDS011;31439;53.512;10.206;2022-10-17T10:39:30;7.57;;;2.92;;
45728;SDS011;31439;53.512;10.206;2022-10-17T10:42:05;7.03;;;3.20;;
45728;SDS011;31439;53.512;10.206;2022-10-17T10:44:41;6.20;;;2.90;;
45728;SDS011;31439;53.512;10.206;2022-10-17T10:47:14;8.05;;;3.22;;
45728;SDS011;31439;53.512;10.206;2022-10-17T10:49:46;10.90;;;3.33;;
45728;SDS011;31439;53.512;10.206;2022-10-17T10:52:28;9.43;;;3.50;;
45728;SDS011;31439;53.512;10.206;2022-10-17T10:54:58;6.55;;;3.42;;
45728;SDS011;31439;53.512;10.206;2022-10-17T10:57:38;5.93;;;3.53;;
45728;SDS011;31439;53.512;10.206;2022-10-17T11:00:08;5.63;;;3.00;;
45728;SDS011;31439;53.512;10.206;2022-10-17T11:08:24;6.45;;;3.03;;
45728;SDS011;31439;53.512;10.206;2022-10-17T11:10:58;6.40;;;2.92;;
45728;SDS011;31439;53.512;10.206;2022-10-17T11:13:41;4.97;;;3.10;;
45728;SDS011;31439;53.512;10.206;2022-10-17T11:16:20;9.80;;;3.63;;
45728;SDS011;31439;53.512;10.206;2022-10-17T11:19:06;5.15;;;2.97;;
45728;SDS011;31439;53.512;10.206;2022-10-17T11:21:48;7.13;;;3.90;;
45728;SDS011;31439;53.512;10.206;2022-10-17T11:24:20;10.52;;;5.45;;
45728;SDS011;31439;53.512;10.206;2022-10-17T11:29:23;5.03;;;3.40;;
45728;SDS011;31439;53.512;10.206;2022-10-17T11:32:22;8.43;;;3.65;;
45728;SDS011;31439;53.512;10.206;2022-10-17T11:35:18;4.90;;;3.10;;
45728;SDS011;31439;53.512;10.206;2022-10-17T11:38:02;6.35;;;3.28;;
45728;SDS011;31439;53.512;10.206;2022-10-17T11:40:37;9.60;;;5.80;;
45728;SDS011;31439;53.512;10.206;2022-10-17T11:45:57;5.68;;;3.10;;
45728;SDS011;31439;53.512;10.206;2022-10-17T11:48:33;5.10;;;2.80;;
45728;SDS011;31439;53.512;10.206;2022-10-17T11:51:25;5.47;;;3.00;;
45728;SDS011;31439;53.512;10.206;2022-10-17T11:54:05;6.47;;;3.15;;
45728;SDS011;31439;53.512;10.206;2022-10-17T11:56:41;5.00;;;3.20;;
45728;SDS011;31439;53.512;10.206;2022-10-17T12:02:52;4.65;;;3.00;;
45728;SDS011;31439;53.512;10.206;2022-10-17T12:08:53;5.47;;;3.40;;
45728;SDS011;31439;53.512;10.206;2022-10-17T12:17:02;6.90;;;3.40;;
45728;SDS011;31439;53.512;10.206;2022-10-17T12:19:36;5.22;;;3.33;;
45728;SDS011;31439;53.512;10.206;2022-10-17T12:22:03;6.25;;;3.08;;
45728;SDS011;31439;53.512;10.206;2022-10-17T12:24:43;8.30;;;3.50;;
45728;SDS011;31439;53.512;10.206;2022-10-17T12:27:30;7.88;;;3.40;;
45728;SDS011;31439;53.512;10.206;2022-10-17T12:32:35;9.60;;;3.40;;
45728;SDS011;31439;53.512;10.206;2022-10-17T12:35:01;7.15;;;4.03;;
45728;SDS011;31439;53.512;10.206;2022-10-17T12:42:59;10.27;;;3.63;;
45728;SDS011;31439;53.512;10.206;2022-10-17T12:45:58;6.38;;;3.55;;
45728;SDS011;31439;53.512;10.206;2022-10-17T12:51:13;5.47;;;3.60;;
45728;SDS011;31439;53.512;10.206;2022-10-17T12:56:10;9.15;;;4.30;;
45728;SDS011;31439;53.512;10.206;2022-10-17T12:58:45;7.15;;;4.07;;
45728;SDS011;31439;53.512;10.206;2022-10-17T13:01:15;7.28;;;3.60;;
45728;SDS011;31439;53.512;10.206;2022-10-17T13:03:55;8.05;;;3.65;;
45728;SDS011;31439;53.512;10.206;2022-10-17T13:06:27;6.88;;;3.50;;
45728;SDS011;31439;53.512;10.206;2022-10-17T13:09:04;5.88;;;3.30;;
45728;SDS011;31439;53.512;10.206;2022-10-17T13:11:35;8.93;;;3.50;;
45728;SDS011;31439;53.512;10.206;2022-10-17T13:14:09;7.03;;;3.60;;
45728;SDS011;31439;53.512;10.206;2022-10-17T13:19:13;7.20;;;3.70;;
45728;SDS011;31439;53.512;10.206;2022-10-17T13:21:50;6.75;;;3.72;;
45728;SDS011;31439;53.512;10.206;2022-10-17T13:24:30;5.93;;;3.75;;
45728;SDS011;31439;53.512;10.206;2022-10-17T13:26:56;15.13;;;6.25;;
45728;SDS011;31439;53.512;10.206;2022-10-17T13:29:22;10.75;;;5.05;;
45728;SDS011;31439;53.512;10.206;2022-10-17T13:31:51;9.50;;;5.63;;
45728;SDS011;31439;53.512;10.206;2022-10-17T13:34:20;11.02;;;5.32;;
45728;SDS011;31439;53.512;10.206;2022-10-17T13:36:48;10.63;;;5.65;;
45728;SDS011;31439;53.512;10.206;2022-10-17T13:39:18;10.43;;;5.85;;
45728;SDS011;31439;53.512;10.206;2022-10-17T13:41:46;11.02;;;6.07;;
45728;SDS011;31439;53.512;10.206;2022-10-17T13:44:14;10.15;;;6.00;;
45728;SDS011;31439;53.512;10.206;2022-10-17T13:46:47;10.48;;;6.20;;
45728;SDS011;31439;53.512;10.206;2022-10-17T13:49:29;9.95;;;6.25;;
45728;SDS011;31439;53.512;10.206;2022-10-17T13:52:01;13.38;;;6.95;;
45728;SDS011;31439;53.512;10.206;2022-10-17T13:54:33;10.48;;;6.88;;
45728;SDS011;31439;53.512;10.206;2022-10-17T13:57:01;9.65;;;7.20;;
45728;SDS011;31439;53.512;10.206;2022-10-17T13:59:38;10.45;;;7.18;;
45728;SDS011;31439;53.512;10.206;2022-10-17T14:02:08;11.35;;;7.22;;
45728;SDS011;31439;53.512;10.206;2022-10-17T14:04:39;17.25;;;8.77;;
45728;SDS011;31439;53.512;10.206;2022-10-17T14:07:05;12.10;;;7.85;;
45728;SDS011;31439;53.512;10.206;2022-10-17T14:09:45;12.20;;;7.35;;
45728;SDS011;31439;53.512;10.206;2022-10-17T14:12:11;12.73;;;8.15;;
45728;SDS011;31439;53.512;10.206;2022-10-17T14:14:37;12.98;;;7.93;;
45728;SDS011;31439;53.512;10.206;2022-10-17T14:17:12;12.30;;;7.80;;
45728;SDS011;31439;53.512;10.206;2022-10-17T14:20:04;10.90;;;7.55;;
45728;SDS011;31439;53.512;10.206;2022-10-17T14:22:34;10.20;;;7.43;;
45728;SDS011;31439;53.512;10.206;2022-10-17T14:25:00;11.68;;;7.95;;
45728;SDS011;31439;53.512;10.206;2022-10-17T14:27:34;12.38;;;8.55;;
45728;SDS011;31439;53.512;10.206;2022-10-17T14:30:29;10.75;;;8.27;;
45728;SDS011;31439;53.512;10.206;2022-10-17T14:32:56;12.05;;;8.50;;
45728;SDS011;31439;53.512;10.206;2022-10-17T14:35:23;11.50;;;8.32;;
45728;SDS011;31439;53.512;10.206;2022-10-17T14:37:50;14.18;;;8.65;;
45728;SDS011;31439;53.512;10.206;2022-10-17T14:40:21;11.63;;;8.60;;
45728;SDS011;31439;53.512;10.206;2022-10-17T14:42:49;11.85;;;8.80;;
45728;SDS011;31439;53.512;10.206;2022-10-17T14:47:51;13.18;;;9.05;;
45728;SDS011;31439;53.512;10.206;2022-10-17T14:50:21;13.20;;;9.30;;
45728;SDS011;31439;53.512;10.206;2022-10-17T14:52:59;12.20;;;9.18;;
45728;SDS011;31439;53.512;10.206;2022-10-17T14:55:25;12.40;;;9.75;;
45728;SDS011;31439;53.512;10.206;2022-10-17T14:57:52;14.43;;;9.73;;
45728;SDS011;31439;53.512;10.206;2022-10-17T15:00:18;15.88;;;10.05;;
45728;SDS011;31439;53.512;10.206;2022-10-17T15:02:45;12.68;;;9.43;;
45728;SDS011;31439;53.512;10.206;2022-10-17T15:05:12;13.90;;;10.13;;
45728;SDS011;31439;53.512;10.206;2022-10-17T15:07:39;13.25;;;9.93;;
45728;SDS011;31439;53.512;10.206;2022-10-17T15:10:05;14.00;;;10.65;;
45728;SDS011;31439;53.512;10.206;2022-10-17T15:12:47;14.93;;;10.60;;
45728;SDS011;31439;53.512;10.206;2022-10-17T15:15:12;17.75;;;12.10;;
45728;SDS011;31439;53.512;10.206;2022-10-17T15:17:38;14.52;;;10.57;;
45728;SDS011;31439;53.512;10.206;2022-10-17T15:20:05;15.75;;;10.63;;
45728;SDS011;31439;53.512;10.206;2022-10-17T15:22:37;14.45;;;10.30;;
45728;SDS011;31439;53.512;10.206;2022-10-17T15:25:03;14.82;;;10.68;;
45728;SDS011;31439;53.512;10.206;2022-10-17T15:27:29;15.32;;;10.93;;
45728;SDS011;31439;53.512;10.206;2022-10-17T15:29:56;17.55;;;11.25;;
45728;SDS011;31439;53.512;10.206;2022-10-17T15:32:21;15.73;;;10.85;;
45728;SDS011;31439;53.512;10.206;2022-10-17T15:34:47;13.35;;;11.05;;
45728;SDS011;31439;53.512;10.206;2022-10-17T15:37:17;14.35;;;10.60;;
45728;SDS011;31439;53.512;10.206;2022-10-17T15:39:50;15.38;;;10.60;;
45728;SDS011;31439;53.512;10.206;2022-10-17T15:42:28;14.20;;;10.80;;
45728;SDS011;31439;53.512;10.206;2022-10-17T15:44:54;16.58;;;11.32;;
45728;SDS011;31439;53.512;10.206;2022-10-17T15:49:53;15.77;;;11.70;;
45728;SDS011;31439;53.512;10.206;2022-10-17T15:52:19;17.77;;;12.15;;
45728;SDS011;31439;53.512;10.206;2022-10-17T15:54:45;19.08;;;11.77;;
45728;SDS011;31439;53.512;10.206;2022-10-17T15:57:14;16.10;;;10.90;;
45728;SDS011;31439;53.512;10.206;2022-10-17T15:59:43;15.50;;;11.73;;
45728;SDS011;31439;53.512;10.206;2022-10-17T16:02:14;12.68;;;10.90;;
45728;SDS011;31439;53.512;10.206;2022-10-17T16:04:48;13.45;;;10.13;;
45728;SDS011;31439;53.512;10.206;2022-10-17T16:07:18;13.88;;;9.98;;
45728;SDS011;31439;53.512;10.206;2022-10-17T16:09:44;13.63;;;10.48;;
45728;SDS011;31439;53.512;10.206;2022-10-17T16:12:12;12.73;;;9.77;;
45728;SDS011;31439;53.512;10.206;2022-10-17T16:14:41;12.30;;;9.18;;
45728;SDS011;31439;53.512;10.206;2022-10-17T16:17:08;13.48;;;9.50;;
45728;SDS011;31439;53.512;10.206;2022-10-17T16:19:38;10.57;;;8.30;;
45728;SDS011;31439;53.512;10.206;2022-10-17T16:22:04;12.93;;;9.23;;
45728;SDS011;31439;53.512;10.206;2022-10-17T16:24:30;13.57;;;9.40;;
45728;SDS011;31439;53.512;10.206;2022-10-17T16:26:56;13.77;;;9.00;;